Time;durP1;ratioP1;P1;durP2;ratioP2;P2;SDS_P1;SDS_P2;PMS_P1;PMS_P2;Temp;Humidity;BMP_temperature;BMP_pressure;BME280_temperature;BME280_humidity;BME280_pressure;Samples;Min_cycle;Max_cycle;Signal;HPM_P1;HPM_P2
2023/04/18 00:02:07;;;;;;;12.00;8.18;;;8.00;99.90;;;;;;5054228;28;20045;-59
2023/04/18 00:04:33;;;;;;;13.18;8.93;;;8.00;99.90;;;;;;5061977;28;20112;-59
2023/04/18 00:06:59;;;;;;;17.45;8.77;;;8.00;99.90;;;;;;5049843;28;20045;-58
2023/04/18 00:09:25;;;;;;;14.75;8.68;;;7.90;99.90;;;;;;5041501;28;20045;-59
2023/04/18 00:11:52;;;;;;;12.77;8.60;;;7.90;99.90;;;;;;5039736;28;20045;-59
2023/04/18 00:14:19;;;;;;;13.90;8.43;;;7.80;99.90;;;;;;5026899;28;20045;-59
2023/04/18 00:16:45;;;;;;;14.45;8.38;;;7.80;99.90;;;;;;5013896;28;20095;-58
2023/04/18 00:19:11;;;;;;;13.05;7.80;;;7.70;99.90;;;;;;5038268;28;20041;-58
2023/04/18 00:21:38;;;;;;;14.65;8.82;;;7.70;99.90;;;;;;5028833;28;20042;-58
2023/04/18 00:24:04;;;;;;;14.68;8.93;;;7.80;99.90;;;;;;5023529;28;20037;-59
2023/04/18 00:26:30;;;;;;;13.57;9.15;;;7.60;99.90;;;;;;5031841;28;20053;-59
2023/04/18 00:28:55;;;;;;;12.82;8.68;;;7.60;99.90;;;;;;5031598;28;20049;-59
2023/04/18 00:31:21;;;;;;;14.90;8.80;;;7.60;99.90;;;;;;5041362;28;20045;-58
2023/04/18 00:33:47;;;;;;;15.77;8.68;;;7.60;99.90;;;;;;5041097;28;20084;-59
2023/04/18 00:36:12;;;;;;;15.63;9.02;;;7.50;99.90;;;;;;5041575;28;20109;-60
2023/04/18 00:38:38;;;;;;;14.27;8.82;;;7.40;99.90;;;;;;5044002;28;20041;-60
2023/04/18 00:41:04;;;;;;;13.18;8.45;;;7.50;99.90;;;;;;5041069;28;20049;-59
2023/04/18 00:43:31;;;;;;;12.95;8.35;;;7.50;99.90;;;;;;5037691;28;20049;-59
2023/04/18 00:46:00;;;;;;;14.27;8.60;;;7.40;99.90;;;;;;5023148;28;20064;-59
2023/04/18 00:48:26;;;;;;;14.73;8.60;;;7.40;99.90;;;;;;5040601;28;20041;-59
2023/04/18 00:50:52;;;;;;;14.25;8.43;;;7.30;99.90;;;;;;5037061;28;20041;-58
2023/04/18 00:53:18;;;;;;;11.68;8.45;;;7.20;99.90;;;;;;5033213;28;20459;-59
2023/04/18 00:55:44;;;;;;;11.85;8.50;;;7.20;99.90;;;;;;5041174;28;20097;-57
2023/04/18 00:58:11;;;;;;;16.88;9.02;;;7.20;99.90;;;;;;5036648;28;20072;-58
2023/04/18 01:00:36;;;;;;;19.35;9.68;;;7.10;99.90;;;;;;5040988;28;20053;-59
2023/04/18 01:03:02;;;;;;;13.60;9.25;;;7.10;99.90;;;;;;5014489;28;20395;-57
2023/04/18 01:05:28;;;;;;;18.02;9.45;;;7.10;99.90;;;;;;5026895;28;20049;-58
2023/04/18 01:07:59;;;;;;;13.18;9.15;;;7.00;99.90;;;;;;5026454;28;20054;-58
2023/04/18 01:10:26;;;;;;;15.07;9.50;;;6.90;99.90;;;;;;5033277;28;20501;-59
2023/04/18 01:13:10;;;;;;;15.60;9.40;;;6.90;99.90;;;;;;5021613;28;20049;-58
2023/04/18 01:15:35;;;;;;;13.30;9.20;;;6.90;99.90;;;;;;5002881;28;20037;-59
2023/04/18 01:18:02;;;;;;;15.32;9.13;;;6.80;99.90;;;;;;5035315;28;20536;-59
2023/04/18 01:20:28;;;;;;;12.48;8.77;;;6.80;99.90;;;;;;5024969;28;20137;-59
2023/04/18 01:22:56;;;;;;;13.80;9.15;;;6.70;99.90;;;;;;5027644;28;20045;-58
2023/04/18 01:25:21;;;;;;;14.93;10.05;;;6.70;99.90;;;;;;5022050;28;20346;-58
2023/04/18 01:27:47;;;;;;;15.60;9.63;;;6.60;99.90;;;;;;5060148;28;20501;-58
2023/04/18 01:30:13;;;;;;;13.75;10.00;;;6.60;99.90;;;;;;5042650;28;20045;-58
2023/04/18 01:32:38;;;;;;;17.92;10.00;;;6.50;99.90;;;;;;5059881;28;20100;-59
2023/04/18 01:35:05;;;;;;;16.02;9.68;;;6.50;99.90;;;;;;5060349;28;20078;-59
2023/04/18 01:37:31;;;;;;;15.88;9.98;;;6.50;99.90;;;;;;5059849;28;20041;-59
2023/04/18 01:39:57;;;;;;;14.90;9.40;;;6.40;99.90;;;;;;5038725;28;20060;-58
2023/04/18 01:42:22;;;;;;;13.05;9.02;;;6.40;99.90;;;;;;5021729;28;20046;-59
2023/04/18 01:44:48;;;;;;;14.43;9.68;;;6.40;99.90;;;;;;5040207;28;20048;-58
2023/04/18 01:47:14;;;;;;;13.10;8.80;;;6.40;99.90;;;;;;5040297;28;20109;-59
2023/04/18 01:49:45;;;;;;;12.88;9.30;;;6.30;99.90;;;;;;5016146;28;20076;-59
2023/04/18 01:52:13;;;;;;;16.35;9.98;;;6.40;99.90;;;;;;5029829;28;20095;-59
2023/04/18 01:54:39;;;;;;;14.48;9.95;;;6.30;99.90;;;;;;5039449;28;20053;-59
2023/04/18 01:57:04;;;;;;;14.05;8.70;;;6.20;99.90;;;;;;5039455;28;20051;-60
2023/04/18 01:59:30;;;;;;;15.63;10.07;;;6.40;99.90;;;;;;5002146;28;20069;-59
2023/04/18 02:01:56;;;;;;;14.52;9.27;;;6.20;99.90;;;;;;4986156;28;20073;-58
2023/04/18 02:04:22;;;;;;;17.25;9.23;;;6.20;99.90;;;;;;5026980;28;20559;-58
2023/04/18 02:06:48;;;;;;;13.07;9.52;;;6.10;99.90;;;;;;5038756;28;20045;-58
2023/04/18 02:09:14;;;;;;;16.90;10.52;;;6.10;99.90;;;;;;5039138;28;20113;-58
2023/04/18 02:11:39;;;;;;;27.90;10.95;;;6.10;99.90;;;;;;5037021;28;20034;-57
2023/04/18 02:14:05;;;;;;;14.88;9.68;;;6.10;99.90;;;;;;5020986;28;20050;-59
2023/04/18 02:16:31;;;;;;;16.33;9.80;;;6.10;99.90;;;;;;5001818;28;20038;-58
2023/04/18 02:18:56;;;;;;;15.50;10.05;;;6.00;99.90;;;;;;5007103;28;20049;-59
2023/04/18 02:21:23;;;;;;;14.15;9.32;;;6.00;99.90;;;;;;5034533;28;20042;-60
2023/04/18 02:23:48;;;;;;;18.23;9.73;;;6.00;99.90;;;;;;5004469;28;20042;-58
2023/04/18 02:26:14;;;;;;;15.60;9.88;;;6.00;99.90;;;;;;5036237;28;20057;-58
2023/04/18 02:28:40;;;;;;;15.10;9.57;;;6.10;99.90;;;;;;5032764;28;20045;-58
2023/04/18 02:31:06;;;;;;;16.35;9.57;;;5.90;99.90;;;;;;5037287;28;20034;-59
2023/04/18 02:33:32;;;;;;;15.25;9.82;;;6.00;99.90;;;;;;5033216;28;20526;-59
2023/04/18 02:35:57;;;;;;;13.65;9.38;;;5.90;99.90;;;;;;5037713;28;20038;-60
2023/04/18 02:38:23;;;;;;;16.33;9.70;;;6.00;99.90;;;;;;5036968;28;20060;-58
2023/04/18 02:40:49;;;;;;;14.82;10.00;;;5.90;99.90;;;;;;5036926;28;20037;-58
2023/04/18 02:43:14;;;;;;;15.35;9.55;;;5.90;99.90;;;;;;5038440;28;20053;-58
2023/04/18 02:45:40;;;;;;;15.73;9.38;;;6.00;99.90;;;;;;5034533;28;20057;-59
2023/04/18 02:48:06;;;;;;;14.40;9.15;;;6.00;99.90;;;;;;5010596;28;20045;-59
2023/04/18 02:50:31;;;;;;;14.95;10.00;;;6.00;99.90;;;;;;5024711;28;20206;-59
2023/04/18 02:52:57;;;;;;;15.25;9.25;;;5.90;99.90;;;;;;5019021;28;20038;-59
2023/04/18 02:55:23;;;;;;;15.40;10.23;;;5.90;99.90;;;;;;5019029;28;20060;-58
2023/04/18 02:57:48;;;;;;;16.60;10.15;;;5.90;99.90;;;;;;5001524;28;20106;-58
2023/04/18 03:00:14;;;;;;;13.48;9.23;;;5.90;99.90;;;;;;5001295;28;20409;-59
2023/04/18 03:02:40;;;;;;;16.60;10.57;;;5.90;99.90;;;;;;5032151;28;20171;-60
2023/04/18 03:05:06;;;;;;;15.43;10.38;;;5.90;99.90;;;;;;5036551;28;20515;-60
2023/04/18 03:07:32;;;;;;;14.65;9.40;;;5.90;99.90;;;;;;5037457;28;20056;-59
2023/04/18 03:09:58;;;;;;;15.75;9.90;;;5.80;99.90;;;;;;5038498;28;20041;-59
2023/04/18 03:12:24;;;;;;;16.27;10.40;;;5.90;99.90;;;;;;5037714;28;20045;-59
2023/04/18 03:14:50;;;;;;;15.20;9.48;;;5.90;99.90;;;;;;5020489;28;20049;-58
2023/04/18 03:17:16;;;;;;;14.80;10.20;;;5.90;99.90;;;;;;5032715;28;20036;-59
2023/04/18 03:19:41;;;;;;;13.57;9.68;;;5.90;99.90;;;;;;5028938;28;20051;-58
2023/04/18 03:22:08;;;;;;;15.05;10.30;;;5.90;99.90;;;;;;5036767;28;20155;-57
2023/04/18 03:24:33;;;;;;;15.18;10.50;;;5.80;99.90;;;;;;5037591;28;20050;-59
2023/04/18 03:26:59;;;;;;;17.50;10.32;;;5.80;99.90;;;;;;5038391;28;20065;-57
2023/04/18 03:29:25;;;;;;;15.98;10.88;;;5.90;99.90;;;;;;5020349;28;20041;-58
2023/04/18 03:31:50;;;;;;;17.25;10.00;;;5.90;99.90;;;;;;5028871;28;20033;-58
2023/04/18 03:34:16;;;;;;;17.52;11.18;;;5.90;99.90;;;;;;5013337;28;20577;-59
2023/04/18 03:36:42;;;;;;;17.48;10.63;;;5.90;99.90;;;;;;5038013;28;20045;-59
2023/04/18 03:39:07;;;;;;;16.80;10.38;;;5.90;99.90;;;;;;5020836;28;20225;-58
2023/04/18 03:41:33;;;;;;;16.88;11.25;;;5.90;99.90;;;;;;5035523;28;20061;-59
2023/04/18 03:43:59;;;;;;;17.70;11.23;;;6.00;99.90;;;;;;5034707;28;20073;-59
2023/04/18 03:46:24;;;;;;;16.73;11.15;;;6.00;99.90;;;;;;5056876;28;20496;-58
2023/04/18 03:48:50;;;;;;;21.63;11.70;;;5.90;99.90;;;;;;5020373;28;20132;-58
2023/04/18 03:51:16;;;;;;;16.55;11.30;;;5.90;99.90;;;;;;5036352;28;20088;-58
2023/04/18 03:53:42;;;;;;;18.98;10.65;;;5.90;99.90;;;;;;5020260;28;20048;-58
2023/04/18 03:56:07;;;;;;;17.55;11.43;;;5.90;99.90;;;;;;5038719;28;20033;-59
2023/04/18 03:58:33;;;;;;;19.00;11.85;;;6.00;99.90;;;;;;5020849;28;20088;-58
2023/04/18 04:00:59;;;;;;;17.63;11.65;;;5.80;99.90;;;;;;5058054;28;20236;-58
2023/04/18 04:03:26;;;;;;;18.85;11.60;;;5.90;99.90;;;;;;5030539;28;20545;-59
2023/04/18 04:05:53;;;;;;;17.23;10.98;;;5.90;99.90;;;;;;5040536;28;20034;-58
2023/04/18 04:08:20;;;;;;;17.00;10.45;;;5.80;99.90;;;;;;5024266;28;20037;-58
2023/04/18 04:10:45;;;;;;;20.45;11.75;;;5.80;99.90;;;;;;5039682;28;20112;-58
2023/04/18 04:13:11;;;;;;;17.33;11.45;;;5.80;99.90;;;;;;5009906;28;20391;-59
2023/04/18 04:15:37;;;;;;;21.52;11.15;;;5.80;99.90;;;;;;5025015;28;20067;-58
2023/04/18 04:18:05;;;;;;;16.10;11.07;;;5.80;99.90;;;;;;5018835;28;20046;-59
2023/04/18 04:20:31;;;;;;;27.10;11.30;;;5.80;99.90;;;;;;4997690;28;20038;-59
2023/04/18 04:22:57;;;;;;;16.70;11.82;;;5.80;99.90;;;;;;5025800;28;20037;-59
2023/04/18 04:25:27;;;;;;;20.73;11.90;;;5.80;99.90;;;;;;5004053;28;20097;-58
2023/04/18 04:27:53;;;;;;;18.38;11.77;;;5.80;99.90;;;;;;5005685;28;20153;-60
2023/04/18 04:30:20;;;;;;;17.65;11.20;;;5.90;99.90;;;;;;5041398;28;20537;-59
2023/04/18 04:32:46;;;;;;;16.25;10.82;;;5.90;99.90;;;;;;5007811;28;20034;-58
2023/04/18 04:35:12;;;;;;;17.00;11.52;;;5.90;99.90;;;;;;5041045;28;20047;-59
2023/04/18 04:37:40;;;;;;;18.70;11.40;;;5.90;99.90;;;;;;5040345;28;20042;-59
2023/04/18 04:40:08;;;;;;;16.10;10.60;;;5.90;99.90;;;;;;5039809;28;20041;-59
2023/04/18 04:42:34;;;;;;;14.82;10.90;;;5.90;99.90;;;;;;5022110;28;20046;-57
2023/04/18 04:45:01;;;;;;;14.98;10.35;;;5.90;99.90;;;;;;5013947;28;20053;-59
2023/04/18 04:47:27;;;;;;;14.85;10.63;;;6.00;99.90;;;;;;5026880;28;20044;-59
2023/04/18 04:49:53;;;;;;;16.38;11.02;;;6.00;99.90;;;;;;5041194;28;20037;-58
2023/04/18 04:52:19;;;;;;;16.52;10.60;;;6.00;99.90;;;;;;5040623;28;20041;-59
2023/04/18 04:54:45;;;;;;;20.63;10.57;;;6.00;99.90;;;;;;5021893;28;20519;-59
2023/04/18 04:57:11;;;;;;;17.98;10.75;;;6.00;99.90;;;;;;5041304;28;20046;-59
2023/04/18 04:59:37;;;;;;;15.45;10.38;;;6.10;99.90;;;;;;5038119;28;20052;-60
2023/04/18 05:02:03;;;;;;;16.35;10.82;;;6.10;99.90;;;;;;4999302;28;20112;-59
2023/04/18 05:04:28;;;;;;;18.83;11.00;;;6.10;99.90;;;;;;5003780;28;20113;-59
2023/04/18 05:06:55;;;;;;;18.40;11.10;;;6.20;99.90;;;;;;5020729;28;20050;-59
2023/04/18 05:09:21;;;;;;;16.52;10.57;;;6.20;99.90;;;;;;5021145;28;20054;-59
2023/04/18 05:11:48;;;;;;;15.90;10.30;;;6.20;99.90;;;;;;5020316;28;20430;-59
2023/04/18 05:14:14;;;;;;;16.10;10.13;;;6.30;99.90;;;;;;5034333;28;20042;-60
2023/04/18 05:16:40;;;;;;;18.70;11.07;;;6.30;99.90;;;;;;5019602;28;20071;-60
2023/04/18 05:19:06;;;;;;;20.38;11.52;;;6.40;99.90;;;;;;5020766;28;20093;-58
2023/04/18 05:21:32;;;;;;;16.08;10.57;;;6.50;99.90;;;;;;5021852;28;20066;-58
2023/04/18 05:23:58;;;;;;;16.63;11.18;;;6.50;99.90;;;;;;4986293;28;20050;-58
2023/04/18 05:26:24;;;;;;;16.65;10.77;;;6.50;99.90;;;;;;5030828;28;20045;-59
2023/04/18 05:28:49;;;;;;;17.23;10.75;;;6.60;99.90;;;;;;5021600;28;20101;-58
2023/04/18 05:31:15;;;;;;;20.05;12.48;;;6.70;99.90;;;;;;5036962;28;20048;-59
2023/04/18 05:33:41;;;;;;;18.90;11.23;;;6.70;99.90;;;;;;5031874;28;20075;-59
2023/04/18 05:36:07;;;;;;;17.10;11.30;;;6.80;99.90;;;;;;5003645;28;20037;-59
2023/04/18 05:38:33;;;;;;;17.90;11.27;;;6.80;99.90;;;;;;5035171;28;20045;-59
2023/04/18 05:40:59;;;;;;;17.38;11.35;;;6.80;99.90;;;;;;5032255;28;20068;-59
2023/04/18 05:43:25;;;;;;;20.10;12.32;;;6.90;99.90;;;;;;5012559;28;20501;-59
2023/04/18 05:45:53;;;;;;;21.90;12.50;;;6.90;99.90;;;;;;5028799;28;20101;-59
2023/04/18 05:48:21;;;;;;;19.60;13.07;;;6.90;99.90;;;;;;5031630;28;20049;-59
2023/04/18 05:50:47;;;;;;;19.52;12.25;;;6.90;99.90;;;;;;5029181;28;20041;-59
2023/04/18 05:53:12;;;;;;;17.95;12.20;;;6.90;99.90;;;;;;5033883;28;20118;-59
2023/04/18 05:55:39;;;;;;;18.38;11.98;;;6.90;99.90;;;;;;5020756;28;20105;-58
2023/04/18 05:58:06;;;;;;;16.33;11.15;;;6.90;99.90;;;;;;5034637;28;20037;-59
2023/04/18 06:00:31;;;;;;;19.27;11.82;;;6.90;99.90;;;;;;5023368;28;20073;-59
2023/04/18 06:02:57;;;;;;;16.55;11.45;;;7.00;99.90;;;;;;4985421;28;20042;-59
2023/04/18 06:05:23;;;;;;;20.45;12.02;;;6.90;99.90;;;;;;5026887;28;20080;-59
2023/04/18 06:07:49;;;;;;;18.20;12.07;;;7.00;99.90;;;;;;5020985;28;20044;-59
2023/04/18 06:10:15;;;;;;;18.05;12.32;;;7.00;99.90;;;;;;5037692;28;20046;-58
2023/04/18 06:12:41;;;;;;;16.92;11.65;;;7.10;99.90;;;;;;5031075;28;20050;-58
2023/04/18 06:15:07;;;;;;;18.40;12.07;;;7.10;99.90;;;;;;5027443;28;20038;-59
2023/04/18 06:17:33;;;;;;;18.13;12.02;;;7.10;99.90;;;;;;5008969;28;20038;-59
2023/04/18 06:19:59;;;;;;;17.55;11.82;;;7.10;99.90;;;;;;5019240;28;20049;-59
2023/04/18 06:22:25;;;;;;;18.75;12.20;;;7.10;99.90;;;;;;5034449;28;20042;-59
2023/04/18 06:24:51;;;;;;;15.80;11.15;;;7.20;99.90;;;;;;5030322;28;20052;-59
2023/04/18 06:27:16;;;;;;;19.80;11.52;;;7.20;99.90;;;;;;5037616;28;20069;-60
2023/04/18 06:29:42;;;;;;;20.08;12.32;;;7.20;99.90;;;;;;5032031;28;20037;-60
2023/04/18 06:32:08;;;;;;;19.67;11.95;;;7.20;99.90;;;;;;5039269;28;20052;-58
2023/04/18 06:34:34;;;;;;;17.02;11.27;;;7.20;99.90;;;;;;5035190;28;20445;-59
2023/04/18 06:37:01;;;;;;;17.88;11.88;;;7.30;99.90;;;;;;5025043;28;20104;-59
2023/04/18 06:39:27;;;;;;;18.30;12.05;;;7.30;99.90;;;;;;5021306;28;20052;-60
2023/04/18 06:41:53;;;;;;;17.17;11.35;;;7.30;99.90;;;;;;5036641;28;20069;-59
2023/04/18 06:44:18;;;;;;;18.92;10.90;;;7.40;99.90;;;;;;5034153;28;20050;-59
2023/04/18 06:46:45;;;;;;;19.15;11.68;;;7.50;99.90;;;;;;5034140;28;20038;-59
2023/04/18 06:49:10;;;;;;;16.35;10.80;;;7.50;99.90;;;;;;5028682;28;20049;-59
2023/04/18 06:51:36;;;;;;;17.88;10.30;;;7.60;99.90;;;;;;5030328;28;20041;-58
2023/04/18 06:54:02;;;;;;;16.27;11.43;;;7.70;99.90;;;;;;5037356;28;20045;-59
2023/04/18 06:56:28;;;;;;;16.58;11.20;;;7.80;99.90;;;;;;5040938;28;20041;-59
2023/04/18 06:58:54;;;;;;;17.80;11.30;;;7.90;99.90;;;;;;5036562;28;20033;-59
2023/04/18 07:01:19;;;;;;;16.95;11.07;;;8.00;99.90;;;;;;5037706;28;20071;-59
2023/04/18 07:03:45;;;;;;;15.18;10.55;;;8.10;99.90;;;;;;5034054;28;20037;-58
2023/04/18 07:06:11;;;;;;;15.95;11.00;;;8.10;99.90;;;;;;5016523;28;20124;-59
2023/04/18 07:08:37;;;;;;;17.38;10.82;;;8.20;99.90;;;;;;5031865;28;20034;-59
2023/04/18 07:11:02;;;;;;;15.00;10.18;;;8.30;99.90;;;;;;5013839;28;20050;-58
2023/04/18 07:13:28;;;;;;;14.98;10.90;;;8.40;99.90;;;;;;5036342;28;20112;-59
2023/04/18 07:15:54;;;;;;;15.02;10.70;;;8.60;99.90;;;;;;5015766;28;20045;-59
2023/04/18 07:18:19;;;;;;;14.32;10.73;;;8.70;99.90;;;;;;5036963;28;20041;-59
2023/04/18 07:20:45;;;;;;;14.77;10.52;;;8.80;99.90;;;;;;5031299;28;20061;-58
2023/04/18 07:23:11;;;;;;;15.98;10.70;;;9.00;99.90;;;;;;5028283;28;20060;-59
2023/04/18 07:25:37;;;;;;;16.50;10.52;;;9.20;99.90;;;;;;5057949;28;20056;-59
2023/04/18 07:28:03;;;;;;;15.80;10.98;;;9.50;99.90;;;;;;5049846;28;20049;-58
2023/04/18 07:30:29;;;;;;;15.82;10.45;;;9.60;99.90;;;;;;5034264;28;20038;-59
2023/04/18 07:32:55;;;;;;;13.43;9.90;;;9.60;99.90;;;;;;5032606;28;20042;-59
2023/04/18 07:35:21;;;;;;;14.93;10.13;;;9.80;99.90;;;;;;5038198;28;20046;-58
2023/04/18 07:37:46;;;;;;;15.90;10.13;;;10.00;99.90;;;;;;5009749;28;20085;-59
2023/04/18 07:40:12;;;;;;;15.80;9.35;;;10.20;99.90;;;;;;5015303;28;20045;-59
2023/04/18 07:42:38;;;;;;;12.93;8.80;;;10.40;99.90;;;;;;5042042;28;20478;-59
2023/04/18 07:45:05;;;;;;;14.60;9.13;;;10.70;99.90;;;;;;5007716;28;20052;-59
2023/04/18 07:47:30;;;;;;;15.63;9.07;;;11.00;99.90;;;;;;5042079;28;20046;-59
2023/04/18 07:49:56;;;;;;;11.45;9.15;;;11.20;99.90;;;;;;5022629;28;20046;-59
2023/04/18 07:52:22;;;;;;;13.65;8.32;;;11.40;99.90;;;;;;5004649;28;20045;-59
2023/04/18 07:54:48;;;;;;;11.43;8.45;;;11.60;99.90;;;;;;5021748;28;20048;-58
2023/04/18 07:57:14;;;;;;;12.00;8.55;;;11.70;99.90;;;;;;5004606;28;20060;-59
2023/04/18 07:59:39;;;;;;;13.05;8.73;;;11.60;99.90;;;;;;5027534;28;20080;-58
2023/04/18 08:02:06;;;;;;;13.15;9.23;;;11.40;99.90;;;;;;5040250;28;20037;-59
2023/04/18 08:04:31;;;;;;;12.85;8.38;;;11.30;99.90;;;;;;5032301;28;20114;-59
2023/04/18 08:06:57;;;;;;;12.90;8.82;;;11.20;99.90;;;;;;5023804;28;20038;-59
2023/04/18 08:09:23;;;;;;;12.02;8.50;;;11.20;99.90;;;;;;5040844;28;20121;-59
2023/04/18 08:11:49;;;;;;;12.90;9.20;;;11.40;99.90;;;;;;5041217;28;20049;-59
2023/04/18 08:14:15;;;;;;;12.48;8.00;;;11.50;99.90;;;;;;5023627;28;20038;-59
2023/04/18 08:16:40;;;;;;;13.15;8.13;;;11.60;99.90;;;;;;5022454;28;20093;-58
2023/04/18 08:19:06;;;;;;;11.18;7.85;;;11.70;99.90;;;;;;4998993;28;20107;-59
2023/04/18 08:21:32;;;;;;;11.55;8.48;;;11.60;99.90;;;;;;5041710;28;20075;-59
2023/04/18 08:23:58;;;;;;;12.90;9.00;;;11.50;99.90;;;;;;5034325;28;20744;-60
2023/04/18 08:26:23;;;;;;;11.68;8.65;;;11.40;99.90;;;;;;5027489;28;20069;-60
2023/04/18 08:28:50;;;;;;;10.80;7.50;;;11.40;99.90;;;;;;5011838;28;20470;-59
2023/04/18 08:31:15;;;;;;;10.13;7.82;;;11.30;99.90;;;;;;5023655;28;20053;-59
2023/04/18 08:33:42;;;;;;;12.63;7.45;;;11.40;99.90;;;;;;5041171;28;20068;-59
2023/04/18 08:36:08;;;;;;;11.07;7.65;;;11.40;99.90;;;;;;5041325;28;20267;-59
2023/04/18 08:38:34;;;;;;;11.40;7.60;;;11.50;99.90;;;;;;5037139;28;20046;-59
2023/04/18 08:41:00;;;;;;;10.50;7.93;;;11.50;99.90;;;;;;5032310;28;20172;-59
2023/04/18 08:43:25;;;;;;;10.88;7.95;;;11.50;99.90;;;;;;5021163;28;20038;-58
2023/04/18 08:45:58;;;;;;;10.98;7.53;;;11.50;99.90;;;;;;5020994;28;20126;-59
2023/04/18 08:48:26;;;;;;;11.32;8.25;;;11.40;99.90;;;;;;5020283;28;20052;-59
2023/04/18 08:50:57;;;;;;;13.95;8.57;;;11.40;99.90;;;;;;5020841;28;20042;-59
2023/04/18 08:53:23;;;;;;;12.52;8.57;;;11.50;99.90;;;;;;5025890;28;20046;-59
2023/04/18 08:55:53;;;;;;;11.43;8.43;;;11.60;99.90;;;;;;5023712;28;20034;-59
2023/04/18 08:58:24;;;;;;;11.63;8.32;;;11.70;99.90;;;;;;5040516;28;20060;-59
2023/04/18 09:00:53;;;;;;;11.23;8.57;;;11.70;99.90;;;;;;5040753;28;20077;-60
2023/04/18 09:03:39;;;;;;;12.68;8.48;;;11.70;99.90;;;;;;5039925;28;20068;-59
2023/04/18 09:06:17;;;;;;;12.40;8.32;;;11.80;99.90;;;;;;5041003;28;20053;-59
2023/04/18 09:09:00;;;;;;;14.25;8.65;;;12.00;99.90;;;;;;5040969;28;20045;-59
2023/04/18 09:11:28;;;;;;;14.38;8.38;;;12.10;99.90;;;;;;5040065;28;20272;-59
2023/04/18 09:13:57;;;;;;;11.90;8.93;;;12.10;99.90;;;;;;5040023;28;20037;-59
2023/04/18 09:16:24;;;;;;;12.00;8.82;;;12.00;99.90;;;;;;5040359;28;20045;-59
2023/04/18 09:19:12;;;;;;;12.80;9.07;;;12.00;99.90;;;;;;5040614;28;20434;-59
2023/04/18 09:21:40;;;;;;;13.48;9.35;;;12.00;99.90;;;;;;5040702;28;20033;-59
2023/04/18 09:24:36;;;;;;;13.43;9.40;;;12.10;99.90;;;;;;5039959;28;20079;-59
2023/04/18 09:27:02;;;;;;;12.68;8.80;;;12.30;99.90;;;;;;5031503;28;20058;-58
2023/04/18 09:29:45;;;;;;;13.25;9.63;;;12.30;99.90;;;;;;5039897;28;20076;-59
2023/04/18 09:32:28;;;;;;;11.90;8.50;;;12.40;99.90;;;;;;5040163;28;20037;-59
2023/04/18 09:35:00;;;;;;;12.10;8.70;;;12.20;99.90;;;;;;5040161;28;20084;-59
2023/04/18 09:37:27;;;;;;;13.43;9.18;;;12.10;99.90;;;;;;5021809;28;20179;-59
2023/04/18 09:39:53;;;;;;;12.93;9.05;;;12.00;99.90;;;;;;5022436;28;20121;-59
2023/04/18 09:42:20;;;;;;;9.60;7.82;;;12.10;99.90;;;;;;5039760;28;20152;-59
2023/04/18 09:45:05;;;;;;;14.40;9.35;;;12.30;99.90;;;;;;5040009;28;20107;-59
2023/04/18 09:47:33;;;;;;;12.35;9.10;;;12.60;99.90;;;;;;5022290;28;20038;-59
2023/04/18 09:50:04;;;;;;;13.73;9.50;;;13.00;99.90;;;;;;5039657;28;20112;-59
2023/04/18 09:52:33;;;;;;;14.50;9.85;;;13.30;99.90;;;;;;5039783;28;20049;-59
2023/04/18 09:55:02;;;;;;;12.38;10.05;;;13.60;99.90;;;;;;5039670;28;20041;-59
2023/04/18 09:57:30;;;;;;;14.90;10.13;;;13.60;99.90;;;;;;5039956;28;20093;-59
2023/04/18 10:00:22;;;;;;;13.63;10.43;;;13.60;99.90;;;;;;5031085;28;20568;-59
2023/04/18 10:02:49;;;;;;;14.48;10.70;;;13.50;99.90;;;;;;5035423;28;20128;-58
2023/04/18 10:05:16;;;;;;;13.65;9.38;;;13.50;99.90;;;;;;5039593;28;20555;-58
2023/04/18 10:07:46;;;;;;;11.70;8.80;;;13.40;99.90;;;;;;5039074;28;20034;-58
2023/04/18 10:10:12;;;;;;;13.55;9.95;;;13.40;99.90;;;;;;5039682;28;20091;-58
2023/04/18 10:12:40;;;;;;;15.48;10.05;;;13.50;99.90;;;;;;5005048;28;20038;-58
2023/04/18 10:15:07;;;;;;;15.57;10.85;;;13.70;99.90;;;;;;5039315;28;20072;-58
2023/04/18 10:17:53;;;;;;;16.17;10.02;;;13.80;99.90;;;;;;5021812;28;20045;-58
2023/04/18 10:20:22;;;;;;;13.18;10.50;;;13.80;99.90;;;;;;5020044;28;20129;-59
2023/04/18 10:22:52;;;;;;;12.85;10.13;;;13.80;99.90;;;;;;5037082;28;20128;-57
2023/04/18 10:25:39;;;;;;;15.32;10.88;;;14.00;99.90;;;;;;5023691;28;20045;-57
2023/04/18 10:28:06;;;;;;;12.95;10.10;;;14.10;99.90;;;;;;5041594;28;20049;-58
2023/04/18 10:30:41;;;;;;;14.18;9.63;;;14.30;99.90;;;;;;5020059;28;20120;-59
2023/04/18 10:33:19;;;;;;;16.77;11.23;;;14.50;99.90;;;;;;5035802;28;20037;-58
2023/04/18 10:35:59;;;;;;;12.57;9.10;;;14.60;99.90;;;;;;5038840;28;20056;-59
2023/04/18 10:38:25;;;;;;;12.88;10.48;;;14.70;99.90;;;;;;5029635;28;20056;-58
2023/04/18 10:40:50;;;;;;;14.98;10.63;;;14.70;99.90;;;;;;5033038;28;20045;-58
2023/04/18 10:43:16;;;;;;;11.55;9.48;;;14.70;99.90;;;;;;5038845;28;20071;-59
2023/04/18 10:45:42;;;;;;;13.05;10.00;;;14.70;99.90;;;;;;5038343;28;20076;-59
2023/04/18 10:48:31;;;;;;;15.98;11.43;;;14.60;99.90;;;;;;5034401;28;20037;-58
2023/04/18 10:51:19;;;;;;;16.55;9.85;;;14.60;99.90;;;;;;5034635;28;20038;-58
2023/04/18 10:53:53;;;;;;;14.88;9.80;;;14.80;99.90;;;;;;5016392;28;20077;-59
2023/04/18 10:56:19;;;;;;;15.27;10.68;;;15.10;99.90;;;;;;5028708;28;20045;-58
2023/04/18 10:58:52;;;;;;;15.55;10.85;;;15.10;99.90;;;;;;5037321;28;20052;-59
2023/04/18 11:01:28;;;;;;;14.85;10.95;;;15.10;99.90;;;;;;5038238;28;20056;-58
2023/04/18 11:03:54;;;;;;;13.75;9.90;;;15.10;99.90;;;;;;5033555;28;20069;-58
2023/04/18 11:06:27;;;;;;;12.35;8.88;;;15.20;99.90;;;;;;5038222;28;20076;-59
2023/04/18 11:09:12;;;;;;;11.15;8.27;;;15.30;99.90;;;;;;5024422;28;20052;-58
2023/04/18 11:11:38;;;;;;;17.83;9.65;;;15.30;99.90;;;;;;5029481;28;20030;-59
2023/04/18 11:14:04;;;;;;;10.90;8.57;;;15.10;99.90;;;;;;5030114;28;20033;-59
2023/04/18 11:16:31;;;;;;;12.80;9.63;;;15.10;99.90;;;;;;5024309;28;20050;-58
2023/04/18 11:18:57;;;;;;;14.40;8.82;;;15.20;99.90;;;;;;5031846;28;20081;-59
2023/04/18 11:21:27;;;;;;;10.70;7.85;;;15.30;99.90;;;;;;5022114;28;20044;-59
2023/04/18 11:23:56;;;;;;;12.23;8.48;;;15.40;99.90;;;;;;5003547;28;20642;-59
2023/04/18 11:26:26;;;;;;;14.25;9.30;;;15.50;99.90;;;;;;5023605;28;20033;-59
2023/04/18 11:28:57;;;;;;;13.68;8.95;;;15.40;99.90;;;;;;5023242;28;20034;-59
2023/04/18 11:31:24;;;;;;;11.52;9.55;;;15.40;99.90;;;;;;5032135;28;20105;-60
2023/04/18 11:33:55;;;;;;;11.85;9.73;;;15.50;99.90;;;;;;5026847;28;20037;-60
2023/04/18 11:36:21;;;;;;;13.13;10.20;;;15.60;99.90;;;;;;5009812;28;20037;-60
2023/04/18 11:38:47;;;;;;;11.77;9.73;;;15.80;99.90;;;;;;5016948;28;20114;-60
2023/04/18 11:41:14;;;;;;;11.77;9.82;;;15.80;99.90;;;;;;5025016;28;20228;-59
2023/04/18 11:43:44;;;;;;;11.30;8.98;;;15.80;99.90;;;;;;5034331;28;20041;-59
2023/04/18 11:46:11;;;;;;;13.07;9.27;;;15.80;99.50;;;;;;5018591;28;20045;-59
2023/04/18 11:48:38;;;;;;;13.32;10.07;;;15.90;99.00;;;;;;5016386;28;20048;-59
2023/04/18 11:51:05;;;;;;;12.43;9.45;;;15.90;99.00;;;;;;5026954;28;20046;-59
2023/04/18 11:53:35;;;;;;;13.07;10.50;;;15.90;98.50;;;;;;5036931;28;20524;-58
2023/04/18 11:56:02;;;;;;;11.63;9.90;;;15.90;98.30;;;;;;5028913;28;20042;-59
2023/04/18 11:58:35;;;;;;;13.20;10.10;;;15.90;99.00;;;;;;5028933;28;20038;-59
2023/04/18 12:01:24;;;;;;;12.02;9.73;;;15.80;98.70;;;;;;5011723;28;20042;-59
2023/04/18 12:04:18;;;;;;;12.13;9.50;;;15.80;98.20;;;;;;5026014;28;20116;-59
2023/04/18 12:06:52;;;;;;;12.40;9.90;;;15.60;98.40;;;;;;5020586;28;20620;-59
2023/04/18 12:09:20;;;;;;;11.93;9.50;;;15.60;98.60;;;;;;5036048;28;20037;-57
2023/04/18 12:11:58;;;;;;;10.55;8.77;;;15.70;98.80;;;;;;5032525;28;20070;-59
2023/04/18 12:14:24;;;;;;;12.25;8.68;;;15.70;98.80;;;;;;5029641;28;20049;-62
2023/04/18 12:16:50;;;;;;;13.15;9.73;;;15.80;98.80;;;;;;4993311;28;20077;-58
2023/04/18 12:19:19;;;;;;;10.80;8.40;;;15.80;98.40;;;;;;5007128;28;20042;-58
2023/04/18 12:22:15;;;;;;;11.23;7.72;;;15.80;98.80;;;;;;5026157;28;20156;-59
2023/04/18 12:24:42;;;;;;;11.10;8.68;;;15.90;98.30;;;;;;5008691;28;20057;-58
2023/04/18 12:27:07;;;;;;;14.13;8.48;;;15.90;98.10;;;;;;5005323;28;20042;-59
2023/04/18 12:29:33;;;;;;;10.27;8.75;;;16.00;97.40;;;;;;5037955;28;20099;-58
2023/04/18 12:31:59;;;;;;;12.60;9.30;;;15.80;97.20;;;;;;5014580;28;20054;-59
2023/04/18 12:34:24;;;;;;;12.50;9.02;;;15.70;97.60;;;;;;5038957;28;20092;-59
2023/04/18 12:36:51;;;;;;;11.98;9.98;;;15.80;97.70;;;;;;5040848;28;20049;-59
2023/04/18 12:39:16;;;;;;;13.50;9.10;;;15.90;97.60;;;;;;5035479;28;20045;-60
2023/04/18 12:41:42;;;;;;;11.23;9.10;;;15.90;97.50;;;;;;5011117;28;20041;-59